createdAt,value
2018-06-07T00:00:23.501Z,1008.16
2018-06-07T00:01:23.471Z,1008.12
2018-06-07T00:02:23.455Z,1008.10
2018-06-07T00:03:23.424Z,1008.09
2018-06-07T00:04:23.412Z,1008.08
2018-06-07T00:05:23.387Z,1008.06
2018-06-07T00:06:23.359Z,1008.08
2018-06-07T00:07:23.350Z,1008.07
2018-06-07T00:08:23.329Z,1008.04
2018-06-07T00:09:23.298Z,1008.10
2018-06-07T00:10:23.276Z,1008.11
2018-06-07T00:11:23.265Z,1008.05
2018-06-07T00:12:23.237Z,1008.07
2018-06-07T00:13:23.211Z,1008.08
2018-06-07T00:14:23.194Z,1008.05
2018-06-07T00:15:23.174Z,1008.03
2018-06-07T00:16:23.154Z,1008.01
2018-06-07T00:17:23.135Z,1008.04
2018-06-07T00:18:23.110Z,1008.06
2018-06-07T00:19:23.081Z,1008.05
2018-06-07T00:20:23.063Z,1008.03
2018-06-07T00:21:23.041Z,1008.06
2018-06-07T00:22:23.022Z,1008.05
2018-06-07T00:23:22.995Z,1008.07
2018-06-07T00:24:22.991Z,1008.03
2018-06-07T00:25:22.952Z,1008.07
2018-06-07T00:26:22.936Z,1008.01
2018-06-07T00:27:22.903Z,1008.03
2018-06-07T00:28:22.891Z,1008.05
2018-06-07T00:29:22.860Z,1008.04
2018-06-07T00:30:22.848Z,1008.05
2018-06-07T00:31:22.822Z,1008.05
2018-06-07T00:32:22.804Z,1008.06
2018-06-07T00:33:22.783Z,1008.04
2018-06-07T00:34:22.754Z,1008.06
2018-06-07T00:35:22.735Z,1008.05
2018-06-07T00:36:22.709Z,1008.06
2018-06-07T00:37:22.692Z,1008.08
2018-06-07T00:38:22.662Z,1008.10
2018-06-07T00:39:22.720Z,1008.09
2018-06-07T00:40:22.621Z,1008.11
2018-06-07T00:41:22.608Z,1008.11
2018-06-07T00:42:22.577Z,1008.13
2018-06-07T00:43:22.569Z,1008.14
2018-06-07T00:44:22.534Z,1008.15
2018-06-07T00:45:22.523Z,1008.16
2018-06-07T00:46:22.545Z,1008.24
2018-06-07T00:47:22.475Z,1008.21
2018-06-07T00:48:22.450Z,1008.24
2018-06-07T00:49:22.436Z,1008.18
2018-06-07T00:50:22.404Z,1008.15
2018-06-07T00:51:22.381Z,1008.14
2018-06-07T00:52:22.359Z,1008.18
2018-06-07T00:53:22.340Z,1008.16
2018-06-07T00:54:22.320Z,1008.13
2018-06-07T00:55:22.297Z,1008.15
2018-06-07T00:56:22.278Z,1008.12
2018-06-07T00:57:22.258Z,1008.14
2018-06-07T00:58:22.231Z,1008.14
2018-06-07T00:59:22.221Z,1008.14
2018-06-07T01:00:22.195Z,1008.13
2018-06-07T01:01:22.166Z,1008.14
2018-06-07T01:02:22.155Z,1008.15
2018-06-07T01:03:22.123Z,1008.17
2018-06-07T01:04:22.108Z,1008.13
2018-06-07T01:05:22.080Z,1008.18
2018-06-07T01:06:22.058Z,1008.15
2018-06-07T01:07:22.032Z,1008.19
2018-06-07T01:08:22.015Z,1008.20
2018-06-07T01:09:21.992Z,1008.17
2018-06-07T01:10:21.974Z,1008.20
2018-06-07T01:11:21.948Z,1008.20
2018-06-07T01:12:21.933Z,1008.20
2018-06-07T01:13:21.900Z,1008.21
2018-06-07T01:14:21.886Z,1008.21
2018-06-07T01:15:21.864Z,1008.20
2018-06-07T01:16:21.845Z,1008.21
2018-06-07T01:17:21.811Z,1008.20
2018-06-07T01:18:21.794Z,1008.20
2018-06-07T01:19:21.792Z,1008.18
2018-06-07T01:20:21.753Z,1008.20
2018-06-07T01:21:21.740Z,1008.20
2018-06-07T01:22:21.711Z,1008.16
2018-06-07T01:23:21.685Z,1008.16
2018-06-07T01:24:21.659Z,1008.18
2018-06-07T01:25:21.640Z,1008.18
2018-06-07T01:26:21.620Z,1008.17
2018-06-07T01:27:21.592Z,1008.16
2018-06-07T01:28:21.575Z,1008.16
2018-06-07T01:29:21.552Z,1008.16
2018-06-07T01:30:21.524Z,1008.17
2018-06-07T01:31:21.505Z,1008.15
2018-06-07T01:32:21.486Z,1008.18
2018-06-07T01:33:21.472Z,1008.16
2018-06-07T01:34:21.446Z,1008.18
2018-06-07T01:35:21.417Z,1008.18
2018-06-07T01:36:21.402Z,1008.20
2018-06-07T01:37:21.376Z,1008.15
2018-06-07T01:38:21.354Z,1008.16
2018-06-07T01:39:21.329Z,1008.17
2018-06-07T01:40:21.306Z,1008.18
2018-06-07T01:41:21.291Z,1008.20
2018-06-07T01:42:21.263Z,1008.20
2018-06-07T01:43:21.252Z,1008.18
2018-06-07T01:44:21.225Z,1008.20
2018-06-07T01:45:21.194Z,1008.22
2018-06-07T01:46:21.180Z,1008.21
2018-06-07T01:47:21.156Z,1008.21
2018-06-07T01:48:21.130Z,1008.23
2018-06-07T01:49:21.112Z,1008.24
2018-06-07T01:50:21.085Z,1008.25
2018-06-07T01:51:21.071Z,1008.22
2018-06-07T01:52:21.045Z,1008.25
2018-06-07T01:53:21.027Z,1008.26
2018-06-07T01:54:21.007Z,1008.27
2018-06-07T01:55:20.972Z,1008.25
2018-06-07T01:56:20.959Z,1008.27
2018-06-07T01:57:20.938Z,1008.27
2018-06-07T01:58:22.401Z,1008.27
2018-06-07T01:59:21.513Z,1008.26
2018-06-07T02:00:23.188Z,1008.31
2018-06-07T02:01:22.237Z,1008.27
2018-06-07T02:02:21.991Z,1008.29
2018-06-07T02:03:20.809Z,1008.29
2018-06-07T02:04:20.781Z,1008.26
2018-06-07T02:05:20.762Z,1008.31
2018-06-07T02:06:20.744Z,1008.28
2018-06-07T02:07:20.715Z,1008.30
2018-06-07T02:08:20.692Z,1008.29
2018-06-07T02:09:20.673Z,1008.28
2018-06-07T02:10:21.358Z,1008.31
2018-06-07T02:11:20.627Z,1008.29
2018-06-07T02:12:20.606Z,1008.29
2018-06-07T02:13:20.581Z,1008.30
2018-06-07T02:14:20.566Z,1008.29
2018-06-07T02:15:20.536Z,1008.30
2018-06-07T02:16:20.521Z,1008.32
2018-06-07T02:17:20.488Z,1008.28
2018-06-07T02:18:20.476Z,1008.28
2018-06-07T02:19:20.444Z,1008.28
2018-06-07T02:20:20.428Z,1008.30
2018-06-07T02:21:20.406Z,1008.24
2018-06-07T02:22:20.379Z,1008.22
2018-06-07T02:23:20.359Z,1008.31
2018-06-07T02:24:20.334Z,1008.24
2018-06-07T02:25:20.320Z,1008.25
2018-06-07T02:26:20.296Z,1008.24
2018-06-07T02:27:20.275Z,1008.23
2018-06-07T02:28:20.250Z,1008.20
2018-06-07T02:29:20.231Z,1008.22
2018-06-07T02:30:20.212Z,1008.18
2018-06-07T02:31:20.188Z,1008.21
2018-06-07T02:32:20.170Z,1008.20
2018-06-07T02:33:20.140Z,1008.18
2018-06-07T02:34:20.121Z,1008.13
2018-06-07T02:35:20.102Z,1008.14
2018-06-07T02:36:20.069Z,1008.09
2018-06-07T02:37:20.062Z,1008.13
2018-06-07T02:38:20.029Z,1008.14
2018-06-07T02:39:20.016Z,1008.14
2018-06-07T02:40:19.996Z,1008.12
2018-06-07T02:41:19.966Z,1008.12
2018-06-07T02:42:19.943Z,1008.10
2018-06-07T02:43:19.923Z,1008.12
2018-06-07T02:44:19.898Z,1008.15
2018-06-07T02:45:19.882Z,1008.16
2018-06-07T02:46:19.852Z,1008.19
2018-06-07T02:47:19.836Z,1008.16
2018-06-07T02:48:19.816Z,1008.19
2018-06-07T02:49:19.786Z,1008.20
2018-06-07T02:50:19.766Z,1008.21
2018-06-07T02:51:19.743Z,1008.23
2018-06-07T02:52:19.726Z,1008.19
2018-06-07T02:53:19.698Z,1008.19
2018-06-07T02:54:19.678Z,1008.20
2018-06-07T02:55:19.654Z,1008.22
2018-06-07T02:56:19.629Z,1008.19
2018-06-07T02:57:19.619Z,1008.23
2018-06-07T02:58:19.594Z,1008.20
2018-06-07T02:59:19.563Z,1008.22
2018-06-07T03:00:19.552Z,1008.24
2018-06-07T03:01:19.619Z,1008.24
2018-06-07T03:02:19.501Z,1008.27
2018-06-07T03:03:19.477Z,1008.29
2018-06-07T03:04:19.462Z,1008.27
2018-06-07T03:05:19.432Z,1008.31
2018-06-07T03:06:19.422Z,1008.28
2018-06-07T03:07:19.395Z,1008.30
2018-06-07T03:08:19.369Z,1008.35
2018-06-07T03:09:19.343Z,1008.34
2018-06-07T03:10:19.327Z,1008.33
2018-06-07T03:11:19.302Z,1008.35
2018-06-07T03:12:19.284Z,1008.33
2018-06-07T03:13:19.256Z,1008.35
2018-06-07T03:14:19.268Z,1008.32
2018-06-07T03:15:19.215Z,1008.30
2018-06-07T03:16:19.185Z,1008.31
2018-06-07T03:17:19.172Z,1008.32
2018-06-07T03:18:19.150Z,1008.34
2018-06-07T03:19:19.124Z,1008.33
2018-06-07T03:20:19.103Z,1008.36
2018-06-07T03:21:19.080Z,1008.35
2018-06-07T03:22:19.054Z,1008.36
2018-06-07T03:23:19.039Z,1008.38
2018-06-07T03:24:19.011Z,1008.37
2018-06-07T03:25:18.996Z,1008.37
2018-06-07T03:26:18.965Z,1008.38
2018-06-07T03:27:18.949Z,1008.36
2018-06-07T03:28:18.930Z,1008.35
2018-06-07T03:29:18.905Z,1008.32
2018-06-07T03:30:18.879Z,1008.38
2018-06-07T03:31:18.857Z,1008.37
2018-06-07T03:32:18.850Z,1008.33
2018-06-07T03:33:18.806Z,1008.34
2018-06-07T03:34:18.783Z,1008.34
2018-06-07T03:35:18.770Z,1008.35
2018-06-07T03:36:18.746Z,1008.33
2018-06-07T03:37:18.721Z,1008.33
2018-06-07T03:38:18.695Z,1008.35
2018-06-07T03:39:18.678Z,1008.38
2018-06-07T03:40:18.656Z,1008.42
2018-06-07T03:41:18.632Z,1008.39
2018-06-07T03:42:18.610Z,1008.38
2018-06-07T03:43:18.589Z,1008.42
2018-06-07T03:44:18.577Z,1008.38
2018-06-07T03:45:18.538Z,1008.39
2018-06-07T03:46:18.519Z,1008.41
2018-06-07T03:47:18.506Z,1008.45
2018-06-07T03:48:18.479Z,1008.43
2018-06-07T03:49:18.455Z,1008.44
2018-06-07T03:50:18.434Z,1008.46
2018-06-07T03:51:18.553Z,1008.48
2018-06-07T03:52:18.392Z,1008.49
2018-06-07T03:53:18.366Z,1008.51
2018-06-07T03:54:18.344Z,1008.52
2018-06-07T03:55:18.371Z,1008.51
2018-06-07T03:56:18.305Z,1008.52
2018-06-07T03:57:18.273Z,1008.52
2018-06-07T03:58:18.251Z,1008.49
2018-06-07T03:59:18.234Z,1008.52
2018-06-07T04:00:18.212Z,1008.53
2018-06-07T04:01:18.189Z,1008.47
2018-06-07T04:02:18.207Z,1008.48
2018-06-07T04:03:18.139Z,1008.45
2018-06-07T04:04:18.125Z,1008.47
2018-06-07T04:05:18.093Z,1008.48
2018-06-07T04:06:18.143Z,1008.43
2018-06-07T04:07:18.056Z,1008.48
2018-06-07T04:08:18.032Z,1008.51
2018-06-07T04:09:18.007Z,1008.50
2018-06-07T04:10:18.070Z,1008.55
2018-06-07T04:11:17.980Z,1008.48
2018-06-07T04:12:17.942Z,1008.50
2018-06-07T04:13:17.916Z,1008.53
2018-06-07T04:14:17.907Z,1008.53
2018-06-07T04:15:17.875Z,1008.51
2018-06-07T04:16:17.861Z,1008.51
2018-06-07T04:17:17.826Z,1008.51
2018-06-07T04:18:17.809Z,1008.49
2018-06-07T04:19:17.790Z,1008.54
2018-06-07T04:20:17.764Z,1008.51
2018-06-07T04:21:17.747Z,1008.55
2018-06-07T04:22:17.717Z,1008.53
2018-06-07T04:23:17.698Z,1008.54
2018-06-07T04:24:17.672Z,1008.53
2018-06-07T04:25:17.661Z,1008.50
2018-06-07T04:26:17.633Z,1008.54
2018-06-07T04:27:17.601Z,1008.53
2018-06-07T04:28:17.593Z,1008.53
2018-06-07T04:29:17.558Z,1008.52
2018-06-07T04:30:17.541Z,1008.57
2018-06-07T04:31:17.517Z,1008.56
2018-06-07T04:32:17.500Z,1008.56
2018-06-07T04:33:17.472Z,1008.55
2018-06-07T04:34:17.450Z,1008.57
2018-06-07T04:35:17.450Z,1008.52
2018-06-07T04:36:17.411Z,1008.55
2018-06-07T04:37:17.383Z,1008.56
2018-06-07T04:38:17.362Z,1008.57
2018-06-07T04:39:17.345Z,1008.59
2018-06-07T04:40:17.319Z,1008.59
2018-06-07T04:41:17.294Z,1008.62
2018-06-07T04:42:17.276Z,1008.64
2018-06-07T04:43:17.262Z,1008.62
2018-06-07T04:44:17.229Z,1008.67
2018-06-07T04:45:17.206Z,1008.65
2018-06-07T04:46:17.193Z,1008.66
2018-06-07T04:47:17.163Z,1008.68
2018-06-07T04:48:17.156Z,1008.67
2018-06-07T04:49:17.117Z,1008.67
2018-06-07T04:50:17.090Z,1008.66
2018-06-07T04:51:17.081Z,1008.66
2018-06-07T04:52:17.056Z,1008.68
2018-06-07T04:53:17.040Z,1008.69
2018-06-07T04:54:17.004Z,1008.68
2018-06-07T04:55:17.001Z,1008.67
2018-06-07T04:56:16.969Z,1008.68
2018-06-07T04:57:16.936Z,1008.68
2018-06-07T04:58:16.923Z,1008.70
2018-06-07T04:59:16.904Z,1008.72
2018-06-07T05:00:16.872Z,1008.75
2018-06-07T05:01:16.853Z,1008.74
2018-06-07T05:02:16.831Z,1008.77
2018-06-07T05:03:16.805Z,1008.76
2018-06-07T05:04:16.779Z,1008.76
2018-06-07T05:05:16.767Z,1008.77
2018-06-07T05:06:16.735Z,1008.77
2018-06-07T05:07:16.722Z,1008.78
2018-06-07T05:08:16.692Z,1008.81
2018-06-07T05:09:16.677Z,1008.84
2018-06-07T05:10:16.657Z,1008.84
2018-06-07T05:11:16.625Z,1008.83
2018-06-07T05:12:16.613Z,1008.86
2018-06-07T05:13:16.661Z,1008.91
2018-06-07T05:14:16.562Z,1008.95
2018-06-07T05:15:16.541Z,1008.98
2018-06-07T05:16:16.516Z,1008.99
2018-06-07T05:17:16.495Z,1009.03
2018-06-07T05:18:16.467Z,1009.05
2018-06-07T05:19:16.451Z,1009.05
2018-06-07T05:20:16.426Z,1009.08
2018-06-07T05:21:16.413Z,1009.04
2018-06-07T05:22:16.390Z,1009.07
2018-06-07T05:23:16.359Z,1009.02
2018-06-07T05:24:16.345Z,1009.04
2018-06-07T05:25:16.323Z,1009.00
2018-06-07T05:26:16.301Z,1008.98
2018-06-07T05:27:16.282Z,1009.00
2018-06-07T05:28:16.257Z,1008.97
2018-06-07T05:29:16.231Z,1009.02
2018-06-07T05:30:16.214Z,1009.02
2018-06-07T05:31:16.194Z,1009.02
2018-06-07T05:32:16.174Z,1009.01
2018-06-07T05:33:16.179Z,1009.01
2018-06-07T05:34:16.128Z,1009.00
2018-06-07T05:35:16.104Z,1009.02
2018-06-07T05:36:16.083Z,1009.00
2018-06-07T05:37:16.055Z,1009.03
2018-06-07T05:38:16.047Z,1008.99
2018-06-07T05:39:16.018Z,1009.01
2018-06-07T05:40:16.004Z,1009.08
2018-06-07T05:41:15.972Z,1009.09
2018-06-07T05:42:15.960Z,1009.11
2018-06-07T05:43:15.925Z,1009.13
2018-06-07T05:44:15.944Z,1009.16
2018-06-07T05:45:15.898Z,1009.18
2018-06-07T05:46:15.916Z,1009.19
2018-06-07T05:47:15.919Z,1009.18
2018-06-07T05:48:15.869Z,1009.19
2018-06-07T05:49:15.801Z,1009.20
2018-06-07T05:50:15.781Z,1009.23
2018-06-07T05:51:15.756Z,1009.20
2018-06-07T05:52:15.737Z,1009.19
2018-06-07T05:53:15.721Z,1009.22
2018-06-07T05:54:15.697Z,1009.17
2018-06-07T05:55:15.666Z,1009.19
2018-06-07T05:56:15.656Z,1009.16
2018-06-07T05:57:15.626Z,1009.18
2018-06-07T05:58:15.611Z,1009.16
2018-06-07T05:59:15.615Z,1009.22
2018-06-07T06:00:15.591Z,1009.22
2018-06-07T06:01:15.544Z,1009.27
2018-06-07T06:02:15.878Z,1009.32
2018-06-07T06:03:15.500Z,1009.33
2018-06-07T06:04:15.476Z,1009.35
2018-06-07T06:05:15.472Z,1009.28
2018-06-07T06:06:15.436Z,1009.26
2018-06-07T06:07:15.537Z,1009.24
2018-06-07T06:08:15.393Z,1009.24
2018-06-07T06:09:15.383Z,1009.24
2018-06-07T06:10:15.346Z,1009.29
2018-06-07T06:11:15.366Z,1009.29
2018-06-07T06:12:15.317Z,1009.29
2018-06-07T06:13:15.331Z,1009.29
2018-06-07T06:14:15.425Z,1009.23
2018-06-07T06:15:15.241Z,1009.19
2018-06-07T06:16:15.261Z,1009.22
2018-06-07T06:17:15.198Z,1009.24
2018-06-07T06:18:15.202Z,1009.24
2018-06-07T06:19:15.154Z,1009.29
2018-06-07T06:20:15.139Z,1009.32
2018-06-07T06:21:15.160Z,1009.33
2018-06-07T06:22:15.097Z,1009.36
2018-06-07T06:23:15.079Z,1009.34
2018-06-07T06:24:15.055Z,1009.36
2018-06-07T06:25:15.040Z,1009.28
2018-06-07T06:26:15.031Z,1009.27
2018-06-07T06:27:14.993Z,1009.25
2018-06-07T06:28:14.972Z,1009.22
2018-06-07T06:29:14.951Z,1009.24
2018-06-07T06:30:14.930Z,1009.24
2018-06-07T06:31:14.910Z,1009.30
2018-06-07T06:32:14.887Z,1009.30
2018-06-07T06:33:14.863Z,1009.31
2018-06-07T06:34:14.846Z,1009.29
2018-06-07T06:35:14.827Z,1009.29
2018-06-07T06:36:14.800Z,1009.25
2018-06-07T06:37:14.789Z,1009.27
2018-06-07T06:38:14.763Z,1009.24
2018-06-07T06:39:14.746Z,1009.26
2018-06-07T06:40:14.728Z,1009.27
2018-06-07T06:41:14.703Z,1009.29
2018-06-07T06:42:14.680Z,1009.34
2018-06-07T06:43:14.658Z,1009.31
2018-06-07T06:44:14.646Z,1009.31
2018-06-07T06:45:14.698Z,1009.33
2018-06-07T06:46:14.626Z,1009.30
2018-06-07T06:47:14.576Z,1009.33
2018-06-07T06:48:14.562Z,1009.27
2018-06-07T06:49:14.564Z,1009.25
2018-06-07T06:50:14.539Z,1009.22
2018-06-07T06:51:14.498Z,1009.21
2018-06-07T06:52:14.483Z,1009.23
2018-06-07T06:53:14.449Z,1009.22
2018-06-07T06:54:14.433Z,1009.21
2018-06-07T06:55:14.533Z,1009.23
2018-06-07T06:56:14.436Z,1009.20
2018-06-07T06:57:14.433Z,1009.22
2018-06-07T06:58:14.363Z,1009.22
2018-06-07T06:59:14.331Z,1009.22
2018-06-07T07:00:14.318Z,1009.22
2018-06-07T07:01:14.290Z,1009.22
2018-06-07T07:02:14.274Z,1009.22
2018-06-07T07:03:14.250Z,1009.23
2018-06-07T07:04:14.290Z,1009.22
2018-06-07T07:05:14.211Z,1009.23
2018-06-07T07:06:14.207Z,1009.22
2018-06-07T07:07:14.177Z,1009.23
2018-06-07T07:08:14.154Z,1009.20
2018-06-07T07:09:14.191Z,1009.24
2018-06-07T07:10:14.118Z,1009.30
2018-06-07T07:11:14.091Z,1009.28
2018-06-07T07:12:14.075Z,1009.26
2018-06-07T07:13:14.054Z,1009.26
2018-06-07T07:14:14.033Z,1009.23
2018-06-07T07:15:14.017Z,1009.19
2018-06-07T07:16:13.995Z,1009.20
2018-06-07T07:17:13.967Z,1009.18
2018-06-07T07:18:13.950Z,1009.22
2018-06-07T07:19:13.934Z,1009.25
2018-06-07T07:20:13.920Z,1009.24
2018-06-07T07:21:13.890Z,1009.24
2018-06-07T07:22:13.879Z,1009.22
2018-06-07T07:23:13.867Z,1009.24
2018-06-07T07:24:13.838Z,1009.23
2018-06-07T07:25:13.817Z,1009.20
2018-06-07T07:26:13.789Z,1009.22
2018-06-07T07:27:13.780Z,1009.23
2018-06-07T07:28:13.758Z,1009.26
2018-06-07T07:29:13.737Z,1009.27
2018-06-07T07:30:13.714Z,1009.28
2018-06-07T07:31:13.702Z,1009.27
2018-06-07T07:32:13.682Z,1009.25
2018-06-07T07:33:13.652Z,1009.27
2018-06-07T07:34:13.634Z,1009.24
2018-06-07T07:35:13.623Z,1009.25
2018-06-07T07:36:13.598Z,1009.26
2018-06-07T07:37:13.575Z,1009.24
2018-06-07T07:38:13.556Z,1009.23
2018-06-07T07:39:13.542Z,1009.25
2018-06-07T07:40:13.515Z,1009.24
2018-06-07T07:41:14.174Z,1009.26
2018-06-07T07:42:13.483Z,1009.27
2018-06-07T07:43:13.456Z,1009.27
2018-06-07T07:44:13.440Z,1009.27
2018-06-07T07:45:13.430Z,1009.22
2018-06-07T07:46:13.409Z,1009.29
2018-06-07T07:47:13.379Z,1009.24
2018-06-07T07:48:13.366Z,1009.23
2018-06-07T07:49:13.342Z,1009.21
2018-06-07T07:50:13.329Z,1009.21
2018-06-07T07:51:13.301Z,1009.22
2018-06-07T07:52:13.291Z,1009.19
2018-06-07T07:53:13.268Z,1009.14
2018-06-07T07:54:13.248Z,1009.18
2018-06-07T07:55:13.230Z,1009.18
2018-06-07T07:56:13.218Z,1009.20
2018-06-07T07:57:13.186Z,1009.22
2018-06-07T07:58:13.168Z,1009.23
2018-06-07T07:59:13.156Z,1009.25
2018-06-07T08:00:13.134Z,1009.25
2018-06-07T08:01:13.115Z,1009.26
2018-06-07T08:02:13.094Z,1009.23
2018-06-07T08:03:13.079Z,1009.20
2018-06-07T08:04:13.057Z,1009.21
2018-06-07T08:05:13.039Z,1009.21
2018-06-07T08:06:13.014Z,1009.20
2018-06-07T08:07:13.010Z,1009.22
2018-06-07T08:08:12.977Z,1009.22
2018-06-07T08:09:12.965Z,1009.18
2018-06-07T08:10:12.943Z,1009.17
2018-06-07T08:11:12.924Z,1009.17
2018-06-07T08:12:12.937Z,1009.16
2018-06-07T08:13:12.883Z,1009.19
2018-06-07T08:14:12.871Z,1009.17
2018-06-07T08:15:12.870Z,1009.16
2018-06-07T08:16:12.835Z,1009.18
2018-06-07T08:17:13.736Z,1009.18
2018-06-07T08:18:12.805Z,1009.20
2018-06-07T08:19:12.818Z,1009.21
2018-06-07T08:20:12.765Z,1009.19
2018-06-07T08:21:12.734Z,1009.16
2018-06-07T08:22:12.714Z,1009.16
2018-06-07T08:23:12.702Z,1009.18
2018-06-07T08:24:12.683Z,1009.16
2018-06-07T08:25:12.661Z,1009.18
2018-06-07T08:26:12.647Z,1009.17
2018-06-07T08:27:12.619Z,1009.17
2018-06-07T08:28:12.607Z,1009.13
2018-06-07T08:29:12.581Z,1009.17
2018-06-07T08:30:12.563Z,1009.13
2018-06-07T08:31:12.554Z,1009.17
2018-06-07T08:32:12.531Z,1009.13
2018-06-07T08:33:12.510Z,1009.13
2018-06-07T08:34:12.491Z,1009.13
2018-06-07T08:35:12.514Z,1009.15
2018-06-07T08:36:12.490Z,1009.12
2018-06-07T08:37:12.432Z,1009.14
2018-06-07T08:38:12.413Z,1009.20
2018-06-07T08:39:12.463Z,1009.14
2018-06-07T08:40:12.412Z,1009.18
2018-06-07T08:41:12.401Z,1009.20
2018-06-07T08:42:12.339Z,1009.20
2018-06-07T08:43:12.324Z,1009.20
2018-06-07T08:44:12.309Z,1009.20
2018-06-07T08:45:12.287Z,1009.21
2018-06-07T08:46:12.268Z,1009.25
2018-06-07T08:47:12.254Z,1009.24
2018-06-07T08:48:12.267Z,1009.26
2018-06-07T08:49:12.229Z,1009.23
2018-06-07T08:50:12.198Z,1009.24
2018-06-07T08:51:12.181Z,1009.22
2018-06-07T08:52:12.159Z,1009.28
2018-06-07T08:53:12.143Z,1009.26
2018-06-07T08:54:12.127Z,1009.29
2018-06-07T08:55:12.101Z,1009.31
2018-06-07T08:56:12.094Z,1009.29
2018-06-07T08:57:12.065Z,1009.28
2018-06-07T08:58:12.054Z,1009.31
2018-06-07T08:59:12.030Z,1009.33
2018-06-07T09:00:12.099Z,1009.32
2018-06-07T09:01:11.994Z,1009.32
2018-06-07T09:02:11.984Z,1009.29
2018-06-07T09:03:11.959Z,1009.31
2018-06-07T09:04:11.946Z,1009.34
2018-06-07T09:05:11.924Z,1009.34
2018-06-07T09:06:11.907Z,1009.33
2018-06-07T09:07:11.906Z,1009.35
2018-06-07T09:08:11.867Z,1009.36
2018-06-07T09:09:11.854Z,1009.32
2018-06-07T09:10:11.828Z,1009.36
2018-06-07T09:11:11.818Z,1009.38
2018-06-07T09:12:11.794Z,1009.40
2018-06-07T09:13:11.791Z,1009.38
2018-06-07T09:14:11.756Z,1009.38
2018-06-07T09:15:11.748Z,1009.34
2018-06-07T09:16:11.720Z,1009.37
2018-06-07T09:17:11.713Z,1009.39
2018-06-07T09:18:11.696Z,1009.39
2018-06-07T09:19:11.672Z,1009.39
2018-06-07T09:20:11.649Z,1009.35
2018-06-07T09:21:11.636Z,1009.35
2018-06-07T09:22:11.612Z,1009.39
2018-06-07T09:23:11.601Z,1009.42
2018-06-07T09:24:11.578Z,1009.37
2018-06-07T09:25:11.570Z,1009.40
2018-06-07T09:26:11.543Z,1009.41
2018-06-07T09:27:11.531Z,1009.45
2018-06-07T09:28:11.510Z,1009.43
2018-06-07T09:29:11.491Z,1009.43
2018-06-07T09:30:11.476Z,1009.49
2018-06-07T09:31:11.457Z,1009.43
2018-06-07T09:32:11.438Z,1009.48
2018-06-07T09:33:11.421Z,1009.47
2018-06-07T09:34:11.397Z,1009.48
2018-06-07T09:35:11.387Z,1009.43
2018-06-07T09:36:11.360Z,1009.43
2018-06-07T09:37:11.353Z,1009.41
2018-06-07T09:38:11.327Z,1009.38
2018-06-07T09:39:11.312Z,1009.36
2018-06-07T09:40:11.298Z,1009.34
2018-06-07T09:41:11.271Z,1009.35
2018-06-07T09:42:11.256Z,1009.29
2018-06-07T09:43:11.243Z,1009.35
2018-06-07T09:44:11.225Z,1009.38
2018-06-07T09:45:11.211Z,1009.37
2018-06-07T09:46:11.183Z,1009.36
2018-06-07T09:47:11.176Z,1009.35
2018-06-07T09:48:11.153Z,1009.38
2018-06-07T09:49:11.140Z,1009.40
2018-06-07T09:50:11.116Z,1009.39
2018-06-07T09:51:11.103Z,1009.37
2018-06-07T09:52:11.088Z,1009.39
2018-06-07T09:53:11.063Z,1009.39
2018-06-07T09:54:11.047Z,1009.39
2018-06-07T09:55:11.032Z,1009.36
2018-06-07T09:56:11.017Z,1009.36
2018-06-07T09:57:11.005Z,1009.35
2018-06-07T09:58:11.029Z,1009.32
2018-06-07T09:59:10.964Z,1009.35
2018-06-07T10:00:10.949Z,1009.34
2018-06-07T10:01:10.927Z,1009.35
2018-06-07T10:02:10.914Z,1009.36
2018-06-07T10:03:10.914Z,1009.35
2018-06-07T10:04:10.883Z,1009.37
2018-06-07T10:05:10.856Z,1009.39
2018-06-07T10:06:10.843Z,1009.34
2018-06-07T10:07:10.830Z,1009.33
2018-06-07T10:08:10.810Z,1009.35
2018-06-07T10:09:10.791Z,1009.38
2018-06-07T10:10:10.776Z,1009.30
2018-06-07T10:11:11.713Z,1009.33
2018-06-07T10:12:10.739Z,1009.30
2018-06-07T10:13:10.725Z,1009.29
2018-06-07T10:14:10.704Z,1009.25
2018-06-07T10:15:10.695Z,1009.28
2018-06-07T10:16:10.685Z,1009.30
2018-06-07T10:17:10.661Z,1009.32
2018-06-07T10:18:10.635Z,1009.31
2018-06-07T10:19:10.632Z,1009.28
2018-06-07T10:20:10.605Z,1009.29
2018-06-07T10:21:10.594Z,1009.29
2018-06-07T10:22:10.574Z,1009.28
2018-06-07T10:23:10.557Z,1009.31
2018-06-07T10:24:10.540Z,1009.29
2018-06-07T10:25:10.521Z,1009.32
2018-06-07T10:26:10.497Z,1009.30
2018-06-07T10:27:10.492Z,1009.32
2018-06-07T10:28:10.476Z,1009.29
2018-06-07T10:29:10.488Z,1009.27
2018-06-07T10:30:10.432Z,1009.29
2018-06-07T10:31:10.422Z,1009.28
2018-06-07T10:32:10.417Z,1009.25
2018-06-07T10:33:10.382Z,1009.26
2018-06-07T10:34:10.366Z,1009.28
2018-06-07T10:35:10.354Z,1009.28
2018-06-07T10:36:10.334Z,1009.31
2018-06-07T10:37:10.319Z,1009.24
2018-06-07T10:38:10.297Z,1009.26
2018-06-07T10:39:10.287Z,1009.25
2018-06-07T10:40:10.269Z,1009.27
2018-06-07T10:41:10.268Z,1009.25
2018-06-07T10:42:10.242Z,1009.22
2018-06-07T10:43:10.214Z,1009.21
2018-06-07T10:44:10.200Z,1009.23
2018-06-07T10:45:10.186Z,1009.22
2018-06-07T10:46:10.170Z,1009.23
2018-06-07T10:47:10.150Z,1009.23
2018-06-07T10:48:10.133Z,1009.23
2018-06-07T10:49:10.127Z,1009.26
2018-06-07T10:50:10.171Z,1009.24
2018-06-07T10:51:10.092Z,1009.26
2018-06-07T10:52:10.108Z,1009.24
2018-06-07T10:53:10.054Z,1009.22
2018-06-07T10:54:10.037Z,1009.23
2018-06-07T10:55:10.040Z,1009.25
2018-06-07T10:56:10.012Z,1009.22
2018-06-07T10:57:09.987Z,1009.23
2018-06-07T10:58:09.972Z,1009.24
2018-06-07T10:59:09.955Z,1009.28
2018-06-07T11:00:09.942Z,1009.27
2018-06-07T11:01:09.927Z,1009.27
2018-06-07T11:02:09.906Z,1009.22
2018-06-07T11:03:09.892Z,1009.23
2018-06-07T11:04:09.880Z,1009.22
2018-06-07T11:05:09.856Z,1009.22
2018-06-07T11:06:09.841Z,1009.16
2018-06-07T11:07:09.828Z,1009.17
2018-06-07T11:08:09.815Z,1009.17
2018-06-07T11:09:09.791Z,1009.17
2018-06-07T11:10:09.774Z,1009.17
2018-06-07T11:11:09.772Z,1009.21
2018-06-07T11:12:09.757Z,1009.18
2018-06-07T11:13:09.731Z,1009.13
2018-06-07T11:14:09.724Z,1009.15
2018-06-07T11:15:09.705Z,1009.12
2018-06-07T11:16:09.691Z,1009.13
2018-06-07T11:17:09.671Z,1009.12
2018-06-07T11:18:09.655Z,1009.05
2018-06-07T11:19:09.636Z,1009.05
2018-06-07T11:20:09.626Z,1009.07
2018-06-07T11:21:09.605Z,1009.04
2018-06-07T11:22:09.589Z,1009.06
2018-06-07T11:23:09.585Z,1009.04
2018-06-07T11:24:09.558Z,1009.05
2018-06-07T11:25:09.549Z,1009.06
2018-06-07T11:26:09.526Z,1009.04
2018-06-07T11:27:09.521Z,1009.03
2018-06-07T11:28:09.507Z,1009.00
2018-06-07T11:29:09.488Z,1008.99
2018-06-07T11:30:09.471Z,1008.98
2018-06-07T11:31:09.456Z,1008.91
2018-06-07T11:32:09.440Z,1008.91
2018-06-07T11:33:09.424Z,1008.90
2018-06-07T11:34:09.420Z,1008.89
2018-06-07T11:35:09.391Z,1008.90
2018-06-07T11:36:09.372Z,1008.95
2018-06-07T11:37:09.359Z,1008.90
2018-06-07T11:38:09.348Z,1008.93
2018-06-07T11:39:09.326Z,1008.88
2018-06-07T11:40:09.317Z,1008.87
2018-06-07T11:41:09.295Z,1008.85
2018-06-07T11:42:09.285Z,1008.88
2018-06-07T11:43:09.267Z,1008.89
2018-06-07T11:44:09.253Z,1008.87
2018-06-07T11:45:09.236Z,1008.81
2018-06-07T11:46:09.220Z,1008.81
2018-06-07T11:47:09.228Z,1008.87
2018-06-07T11:48:09.191Z,1008.84
2018-06-07T11:49:09.227Z,1008.85
2018-06-07T11:50:09.167Z,1008.86
2018-06-07T11:51:09.151Z,1008.83
2018-06-07T11:52:09.139Z,1008.77
2018-06-07T11:53:09.119Z,1008.87
2018-06-07T11:54:09.105Z,1008.83
2018-06-07T11:55:09.088Z,1008.87
2018-06-07T11:56:09.068Z,1008.83
2018-06-07T11:57:09.072Z,1008.83
2018-06-07T11:58:09.050Z,1008.82
2018-06-07T11:59:09.024Z,1008.81
2018-06-07T12:00:09.014Z,1008.84
2018-06-07T12:01:09.005Z,1008.82
2018-06-07T12:02:08.985Z,1008.77
2018-06-07T12:03:08.980Z,1008.82
2018-06-07T12:04:08.957Z,1008.79
2018-06-07T12:05:08.946Z,1008.82